Kenosha Regional Airport
KENW : now visible

Airfield :











YOU CAN JOIN US ON...

 
LOGIN :

Register | Disclaimer

   EN    FR    IT 

 









Legend :    VFR   Marginal VFR   IFR   Intensive IFR   Very Intensive IFR
Visi :
Ceiling :
>= 8 km
>= 3000ft
5 to 8 km
1000 to 3000 ft
1500m to 5 km
500 to 1000 ft
800 to 1500m
200 to 500 ft
< 800m
< 200 ft
Symbols :   Thunderstorms  Fog  Heavy snow  Heavy precipitations  Wind > 20 kt






- Airport Elevation : 742 ft


KENW - Kenosha Regional

CURRENT METAR :
  • 031353Z 34006KT 10SM OVC010 17/14 A3004 RMK AO2 RAE01 CIG 008V013 SLP172 P0000 T01670144

EXPIRED METARs :
  • 031253Z 34008KT 300V010 6SM -RA BR OVC011 16/14 A3003 RMK AO2 SLP167 P0001 T01610144
  • 031153Z 33008KT 6SM -RA BR OVC007 16/14 A3002 RMK AO2 RAB09 SLP165 P0001 60041 70157 T01560139 10183 20156 53013

TAF KENW
Valid from the 03 at 12:00 until the 04 at 12:00 UTC


031128Z 0312/0412 35007KT P6SM VCSH OVC006
FM031500 01010G20KT P6SM OVC013
FM031900 01013G23KT P6SM -SHRA OVC021
FM032200 01012G20KT P6SM VCSH BKN050
FM040300 01010KT P6SM SCT050
KZAU FIR / North America



MET'MAP, your aeronautical weather chart ! - Copyright ORBIFLY December 2007 - Disclaimer

ORBIFLY MET'MAP TEAM :

Programming & Development : Alexandra Zaïnal
Concept & original design : Baudouin d'Aumeries
Assistance for programming : Marc-Olivier Méhu
Technical & hardware support : Manuel Goepfert

Contact : metmap@orbifly.com




SOURCES & CREDITS :

   NOAA       Earth
Advisory